createdAt,value
2022-11-13T00:00:12.902Z,2.34
2022-11-13T00:01:18.126Z,2.75
2022-11-13T00:02:20.141Z,2.88
2022-11-13T00:03:22.908Z,3.14
2022-11-13T00:04:24.885Z,2.34
2022-11-13T00:05:26.954Z,2.89
2022-11-13T00:06:28.950Z,2.63
2022-11-13T00:07:31.957Z,2.47
2022-11-13T00:08:35.483Z,2.85
2022-11-13T00:09:37.384Z,2.38
2022-11-13T00:10:39.490Z,2.60
2022-11-13T00:11:41.357Z,2.36
2022-11-13T00:12:43.425Z,2.80
2022-11-13T00:13:46.535Z,2.28
2022-11-13T00:14:49.216Z,2.65
2022-11-13T00:16:02.524Z,2.24
2022-11-13T00:17:04.442Z,2.74
2022-11-13T00:18:06.311Z,2.31
2022-11-13T00:19:08.202Z,2.74
2022-11-13T00:20:10.475Z,2.13
2022-11-13T00:21:16.931Z,2.26
2022-11-13T00:22:20.623Z,2.33
2022-11-13T00:23:23.307Z,2.56
2022-11-13T00:24:26.274Z,1.85
2022-11-13T00:25:28.350Z,1.86
2022-11-13T00:26:30.699Z,2.21
2022-11-13T00:27:32.743Z,2.01
2022-11-13T00:28:34.867Z,1.62
2022-11-13T00:29:36.894Z,1.64
2022-11-13T00:30:38.874Z,1.80
2022-11-13T00:31:40.748Z,1.46
2022-11-13T00:32:42.648Z,2.10
2022-11-13T00:34:50.017Z,1.39
2022-11-13T00:35:52.025Z,1.59
2022-11-13T00:36:54.005Z,1.44
2022-11-13T00:37:55.858Z,1.37
2022-11-13T00:38:57.743Z,1.37
2022-11-13T00:40:00.478Z,1.34
2022-11-13T00:41:02.849Z,1.32
2022-11-13T00:42:05.401Z,1.34
2022-11-13T00:43:07.478Z,1.61
2022-11-13T00:44:09.352Z,1.28
2022-11-13T00:45:11.371Z,1.55
2022-11-13T00:46:13.356Z,1.39
2022-11-13T00:47:15.225Z,1.41
2022-11-13T00:48:17.311Z,1.29
2022-11-13T00:49:19.206Z,1.12
2022-11-13T00:50:21.808Z,1.42
2022-11-13T00:51:24.192Z,1.17
2022-11-13T00:52:26.469Z,1.59
2022-11-13T00:53:28.352Z,1.40
2022-11-13T00:54:30.321Z,1.14
2022-11-13T00:55:32.274Z,1.35
2022-11-13T00:56:34.274Z,1.17
2022-11-13T00:57:36.154Z,1.11
2022-11-13T00:58:38.044Z,1.45
2022-11-13T00:59:39.939Z,1.19
2022-11-13T01:00:44.670Z,1.33
2022-11-13T01:01:46.618Z,1.11
2022-11-13T01:02:48.659Z,1.47
2022-11-13T01:03:51.233Z,1.49
2022-11-13T01:04:54.037Z,1.39
2022-11-13T01:05:55.912Z,1.40
2022-11-13T01:06:57.949Z,1.15
2022-11-13T01:08:00.173Z,0.91
2022-11-13T01:09:02.895Z,1.37
2022-11-13T01:10:05.546Z,0.96
2022-11-13T01:11:13.545Z,1.10
2022-11-13T01:12:15.752Z,1.18
2022-11-13T01:13:20.183Z,1.18
2022-11-13T01:14:22.387Z,0.86
2022-11-13T01:15:25.524Z,1.01
2022-11-13T01:16:28.134Z,1.12
2022-11-13T01:17:30.138Z,1.38
2022-11-13T01:18:33.047Z,1.33
2022-11-13T01:19:34.934Z,1.25
2022-11-13T01:20:37.399Z,0.96
2022-11-13T01:21:39.300Z,1.21
2022-11-13T01:22:41.183Z,1.24
2022-11-13T01:23:43.254Z,0.93
2022-11-13T01:24:45.200Z,0.93
2022-11-13T01:25:47.088Z,1.16
2022-11-13T01:26:49.188Z,1.04
2022-11-13T01:27:51.234Z,1.35
2022-11-13T01:28:54.891Z,1.39
2022-11-13T01:29:56.855Z,1.14
2022-11-13T01:30:58.935Z,1.21
2022-11-13T01:32:00.870Z,1.11
2022-11-13T01:33:02.936Z,1.15
2022-11-13T01:34:04.863Z,1.05
2022-11-13T01:35:07.025Z,1.15
2022-11-13T01:36:15.679Z,1.21
2022-11-13T01:37:18.139Z,1.47
2022-11-13T01:38:20.000Z,1.53
2022-11-13T01:39:21.873Z,1.35
2022-11-13T01:40:24.419Z,1.03
2022-11-13T01:41:29.825Z,1.39
2022-11-13T01:42:32.642Z,1.13
2022-11-13T01:44:53.398Z,1.20
2022-11-13T01:46:05.114Z,1.27
2022-11-13T01:47:08.879Z,1.23
2022-11-13T01:48:11.804Z,1.35
2022-11-13T01:49:29.679Z,1.07
2022-11-13T01:50:31.976Z,1.27
2022-11-13T01:51:37.543Z,1.37
2022-11-13T05:52:12.622Z,1.51
2022-11-13T05:53:14.505Z,2.01
2022-11-13T05:54:16.899Z,1.65
2022-11-13T05:55:23.176Z,1.88
2022-11-13T05:56:32.654Z,1.94
2022-11-13T05:57:34.581Z,1.57
2022-11-13T05:58:37.836Z,1.67
2022-11-13T05:59:39.717Z,1.64
2022-11-13T06:00:42.108Z,1.53
2022-11-13T06:01:44.086Z,1.84
2022-11-13T06:02:46.207Z,1.67
2022-11-13T06:03:49.576Z,1.55
2022-11-13T06:04:52.907Z,1.33
2022-11-13T06:05:55.619Z,1.19
2022-11-13T06:06:58.657Z,1.60
2022-11-13T06:08:00.617Z,1.91
2022-11-13T06:09:04.955Z,1.35
2022-11-13T06:10:08.495Z,1.21
2022-11-13T06:11:13.944Z,1.56
2022-11-13T06:12:16.038Z,1.82
2022-11-13T06:13:22.825Z,1.38
2022-11-13T06:14:24.785Z,1.38
2022-11-13T06:15:26.651Z,1.46
2022-11-13T06:16:32.891Z,1.45
2022-11-13T06:17:34.870Z,1.15
2022-11-13T06:18:39.457Z,1.29
2022-11-13T06:19:41.370Z,1.68
2022-11-13T06:20:43.406Z,1.05
2022-11-13T06:21:45.270Z,1.39
2022-11-13T06:22:47.131Z,1.51
2022-11-13T06:23:49.539Z,1.37
2022-11-13T06:24:51.451Z,1.77
2022-11-13T06:26:03.395Z,1.69
2022-11-13T06:27:05.397Z,1.83
2022-11-13T06:28:07.348Z,2.54
2022-11-13T06:29:11.946Z,1.63
2022-11-13T06:30:14.859Z,1.81
2022-11-13T06:31:20.525Z,2.04
2022-11-13T06:32:22.498Z,2.27
2022-11-13T06:33:24.369Z,2.07
2022-11-13T06:34:26.329Z,1.67
2022-11-13T06:35:28.245Z,1.97
2022-11-13T06:36:34.131Z,1.87
2022-11-13T06:37:36.490Z,2.03
2022-11-13T06:38:40.189Z,1.83
2022-11-13T06:39:46.722Z,1.61
2022-11-13T06:40:50.406Z,1.94
2022-11-13T06:41:53.171Z,1.70
2022-11-13T06:42:55.155Z,1.79
2022-11-13T06:44:02.626Z,1.75
2022-11-13T06:45:06.170Z,1.71
2022-11-13T06:46:15.176Z,1.99
2022-11-13T06:47:17.265Z,1.60
2022-11-13T06:48:19.111Z,1.47
2022-11-13T06:49:21.004Z,1.83
2022-11-13T06:50:23.406Z,1.86
2022-11-13T06:51:30.067Z,1.98
2022-11-13T06:52:33.816Z,3.46
2022-11-13T06:53:38.682Z,2.83
2022-11-13T06:54:40.612Z,1.80
2022-11-13T06:55:45.684Z,1.85
2022-11-13T06:56:47.680Z,1.97
2022-11-13T06:57:49.540Z,1.69
2022-11-13T06:58:53.324Z,1.90
2022-11-13T06:59:55.555Z,1.83
2022-11-13T07:00:57.577Z,1.80
2022-11-13T07:01:59.722Z,1.99
2022-11-13T07:03:02.456Z,1.92
2022-11-13T07:04:04.768Z,1.77
2022-11-13T07:05:07.598Z,2.31
2022-11-13T07:06:14.281Z,1.94
2022-11-13T07:07:17.726Z,1.48
2022-11-13T07:08:19.770Z,2.08
2022-11-13T07:09:21.651Z,2.15
2022-11-13T07:10:23.694Z,2.02
2022-11-13T07:11:26.032Z,2.53
2022-11-13T07:12:28.348Z,2.14
2022-11-13T07:13:30.387Z,2.17
2022-11-13T07:14:32.290Z,2.05
2022-11-13T07:15:36.078Z,2.36
2022-11-13T07:17:04.317Z,2.72
2022-11-13T07:17:42.203Z,2.38
2022-11-13T07:21:30.767Z,2.22
2022-11-13T07:22:32.944Z,2.45
2022-11-13T07:23:36.067Z,2.40
2022-11-13T07:24:38.222Z,2.61
2022-11-13T07:25:40.947Z,2.61
2022-11-13T07:26:43.804Z,3.05
2022-11-13T07:27:47.307Z,2.41
2022-11-13T07:28:51.227Z,2.54
2022-11-13T07:29:55.670Z,2.16
2022-11-13T07:30:59.358Z,2.68
2022-11-13T07:32:01.414Z,2.60
2022-11-13T07:33:04.561Z,2.27
2022-11-13T07:34:06.606Z,2.30
2022-11-13T07:35:09.394Z,2.32
2022-11-13T07:36:11.886Z,2.15
2022-11-13T07:37:13.759Z,2.68
2022-11-13T07:38:16.463Z,2.57
2022-11-13T07:39:18.623Z,2.38
2022-11-13T07:40:20.687Z,2.79
2022-11-13T07:41:22.594Z,2.51
2022-11-13T07:42:24.497Z,2.34
2022-11-13T07:43:26.558Z,2.86
2022-11-13T07:44:52.791Z,2.57
2022-11-13T07:45:32.453Z,2.69
2022-11-13T07:46:35.017Z,2.73
2022-11-13T07:47:37.339Z,2.69
2022-11-13T07:48:39.263Z,2.94
2022-11-13T07:49:41.269Z,2.77
2022-11-13T07:50:43.241Z,2.64
2022-11-13T07:51:45.141Z,2.30
2022-11-13T07:52:46.996Z,2.37
2022-11-13T07:53:48.874Z,3.17
2022-11-13T07:54:50.841Z,3.28
2022-11-13T07:55:52.839Z,2.95
2022-11-13T07:56:54.811Z,3.03
2022-11-13T07:57:58.213Z,3.47
2022-11-13T07:59:00.202Z,3.19
2022-11-13T08:00:03.726Z,3.57
2022-11-13T08:01:06.495Z,3.29
2022-11-13T08:02:12.234Z,3.42
2022-11-13T08:03:17.758Z,3.87
2022-11-13T08:04:19.764Z,3.92
2022-11-13T08:05:22.844Z,4.16
2022-11-13T08:06:24.835Z,4.37
2022-11-13T08:07:26.833Z,4.37
2022-11-13T08:08:29.089Z,3.17
2022-11-13T08:09:32.042Z,3.76
2022-11-13T08:10:35.280Z,3.28
2022-11-13T08:11:37.483Z,3.55
2022-11-13T08:12:39.681Z,3.73
2022-11-13T08:13:41.555Z,3.31
2022-11-13T08:14:43.418Z,3.19
2022-11-13T08:15:45.336Z,3.13
2022-11-13T08:16:47.405Z,2.95
2022-11-13T08:18:02.133Z,3.41
2022-11-13T08:19:04.985Z,3.28
2022-11-13T08:20:08.896Z,3.30
2022-11-13T08:21:14.887Z,3.65
2022-11-13T08:22:14.628Z,3.36
2022-11-13T08:23:16.526Z,3.24
2022-11-13T08:24:20.364Z,3.49
2022-11-13T08:25:22.659Z,4.54
2022-11-13T08:26:25.184Z,3.99
2022-11-13T08:27:27.099Z,3.80
2022-11-13T08:28:29.303Z,4.37
2022-11-13T08:29:33.745Z,4.56
2022-11-13T08:30:37.983Z,4.16
2022-11-13T08:31:42.864Z,4.03
2022-11-13T08:32:46.642Z,3.43
2022-11-13T08:33:48.635Z,4.19
2022-11-13T08:34:50.547Z,3.52
2022-11-13T08:35:57.564Z,4.05
2022-11-13T08:37:00.494Z,3.71
2022-11-13T08:38:03.789Z,4.23
2022-11-13T08:39:05.699Z,3.89
2022-11-13T08:40:09.463Z,4.10
2022-11-13T08:41:11.453Z,3.94
2022-11-13T08:42:13.717Z,4.05
2022-11-13T08:43:17.223Z,3.54
2022-11-13T08:44:19.145Z,4.15
2022-11-13T08:45:21.073Z,4.47
2022-11-13T08:46:23.551Z,4.08
2022-11-13T08:47:29.421Z,3.86
2022-11-13T08:48:31.582Z,4.19
2022-11-13T08:49:34.908Z,3.99
2022-11-13T08:50:38.141Z,3.72
2022-11-13T08:51:40.129Z,3.88
2022-11-13T08:52:42.031Z,3.63
2022-11-13T08:53:43.999Z,4.29
2022-11-13T08:54:47.305Z,3.99
2022-11-13T08:55:49.505Z,4.01
2022-11-13T08:56:56.552Z,4.51
2022-11-13T08:57:58.539Z,4.24
2022-11-13T08:59:00.562Z,4.02
2022-11-13T09:00:03.623Z,4.84
2022-11-13T09:01:05.518Z,4.34
2022-11-13T09:02:11.069Z,4.49
2022-11-13T09:03:14.496Z,4.17
2022-11-13T09:04:16.609Z,4.22
2022-11-13T09:05:19.336Z,4.07
2022-11-13T09:06:21.319Z,4.66
2022-11-13T09:07:27.143Z,4.16
2022-11-13T09:08:30.099Z,4.18
2022-11-13T09:09:32.373Z,4.05
2022-11-13T09:10:34.514Z,4.20
2022-11-13T09:11:36.670Z,4.27
2022-11-13T09:12:38.567Z,4.33
2022-11-13T09:13:44.997Z,4.07
2022-11-13T09:14:44.219Z,4.19
2022-11-13T09:15:46.544Z,3.97
2022-11-13T09:16:48.567Z,3.38
2022-11-13T09:17:52.195Z,3.95
2022-11-13T09:18:54.259Z,3.83
2022-11-13T09:20:02.164Z,3.61
2022-11-13T09:21:03.067Z,3.52
2022-11-13T09:22:05.070Z,3.86
2022-11-13T09:23:07.695Z,4.25
2022-11-13T09:24:09.719Z,3.80
2022-11-13T09:25:11.691Z,4.09
2022-11-13T09:26:14.596Z,4.24
2022-11-13T09:27:17.531Z,3.45
2022-11-13T09:28:19.716Z,4.22
2022-11-13T09:29:22.871Z,3.77
2022-11-13T09:30:25.607Z,4.55
2022-11-13T09:31:27.715Z,4.10
2022-11-13T09:32:29.660Z,4.02
2022-11-13T09:33:34.569Z,4.25
2022-11-13T09:34:36.471Z,3.72
2022-11-13T09:35:38.341Z,3.66
2022-11-13T09:36:40.687Z,4.07
2022-11-13T09:37:43.383Z,3.95
2022-11-13T09:38:45.276Z,4.07
2022-11-13T09:39:48.235Z,4.55
2022-11-13T09:40:56.788Z,4.76
2022-11-13T09:42:11.190Z,4.41
2022-11-13T09:43:15.024Z,3.57
2022-11-13T09:44:20.504Z,3.84
2022-11-13T09:45:23.391Z,4.53
2022-11-13T09:46:38.498Z,4.25
2022-11-13T09:47:44.076Z,3.81
2022-11-13T09:48:59.185Z,3.38
2022-11-13T09:50:11.519Z,3.84
2022-11-13T09:51:20.288Z,4.15
2022-11-13T09:52:26.072Z,3.72
2022-11-13T09:53:31.946Z,3.22
2022-11-13T09:54:34.511Z,3.83
2022-11-13T09:55:40.168Z,3.69
2022-11-13T09:56:52.080Z,3.94
2022-11-13T09:59:28.668Z,3.27
2022-11-13T10:00:33.803Z,3.63
2022-11-13T10:02:03.029Z,3.24
2022-11-13T10:03:54.602Z,3.11
2022-11-13T10:05:08.654Z,3.15
2022-11-13T10:06:14.762Z,3.27
2022-11-13T10:07:24.150Z,3.39
2022-11-13T10:08:39.013Z,3.71
2022-11-13T10:09:52.127Z,4.40
2022-11-13T10:11:07.694Z,3.48
2022-11-13T10:12:13.385Z,3.56
2022-11-13T10:13:19.622Z,3.72
2022-11-13T10:14:25.847Z,3.22
2022-11-13T10:15:29.965Z,2.92
2022-11-13T10:16:44.921Z,4.22
2022-11-13T14:31:43.936Z,2.54
2022-11-13T14:32:47.379Z,2.69
2022-11-13T14:33:50.398Z,2.67
2022-11-13T14:34:54.740Z,2.41
2022-11-13T14:35:58.259Z,2.96
2022-11-13T14:37:19.328Z,3.37
2022-11-13T14:38:24.592Z,2.79
2022-11-13T14:39:32.634Z,2.52
2022-11-13T14:40:35.527Z,2.81
2022-11-13T14:41:47.176Z,2.57
2022-11-13T14:43:01.876Z,2.76
2022-11-13T14:44:04.617Z,3.02
2022-11-13T14:45:24.336Z,3.68
2022-11-13T14:46:33.075Z,2.86
2022-11-13T14:47:36.639Z,3.42
2022-11-13T14:48:38.634Z,3.37
2022-11-13T14:49:40.645Z,3.17
2022-11-13T14:51:01.339Z,3.52
2022-11-13T14:52:04.480Z,2.88
2022-11-13T14:53:09.396Z,3.27
2022-11-13T14:55:52.133Z,3.43
2022-11-13T14:56:55.541Z,2.66
2022-11-13T14:57:58.387Z,2.20
2022-11-13T14:59:11.034Z,2.31
2022-11-13T15:00:20.793Z,2.53
2022-11-13T15:01:25.593Z,2.23
2022-11-13T15:02:28.268Z,2.12
2022-11-13T15:03:30.797Z,2.49
2022-11-13T15:04:37.807Z,2.33
2022-11-13T15:05:38.209Z,2.38
2022-11-13T15:06:40.410Z,2.24
2022-11-13T15:07:45.941Z,2.47
2022-11-13T15:08:51.425Z,2.86
2022-11-13T15:09:53.748Z,1.93
2022-11-13T15:10:56.658Z,2.41
2022-11-13T15:11:58.603Z,2.29
2022-11-13T15:13:00.840Z,2.32
2022-11-13T15:14:04.612Z,1.97
2022-11-13T15:15:11.035Z,2.31
2022-11-13T15:16:18.203Z,2.43
2022-11-13T15:17:21.942Z,2.53
2022-11-13T15:18:24.701Z,2.09
2022-11-13T15:19:32.567Z,2.75
2022-11-13T15:20:37.080Z,2.27
2022-11-13T15:21:40.081Z,2.61
2022-11-13T15:22:42.397Z,2.30
2022-11-13T15:23:44.260Z,2.81
2022-11-13T15:24:46.108Z,2.91
2022-11-13T15:25:49.090Z,2.89
2022-11-13T15:26:51.138Z,2.38
2022-11-13T15:27:52.987Z,3.28
2022-11-13T15:28:55.228Z,3.15
2022-11-13T15:29:57.235Z,2.64
2022-11-13T15:30:59.241Z,2.45
2022-11-13T15:32:01.177Z,2.77
2022-11-13T15:33:15.108Z,2.43
2022-11-13T15:34:17.578Z,3.00
2022-11-13T15:35:20.449Z,3.31
2022-11-13T15:36:22.736Z,2.76
2022-11-13T15:37:25.183Z,3.63
2022-11-13T15:38:27.359Z,3.40
2022-11-13T15:39:29.229Z,3.45
2022-11-13T15:40:31.416Z,2.89
2022-11-13T15:41:35.231Z,3.53
2022-11-13T15:42:37.217Z,3.22
2022-11-13T15:44:51.034Z,3.55
2022-11-13T15:45:52.909Z,3.25
2022-11-13T15:46:55.902Z,3.11
2022-11-13T15:47:59.365Z,3.76
2022-11-13T15:49:04.814Z,4.76
2022-11-13T15:50:15.767Z,4.63
2022-11-13T15:51:28.140Z,3.89
2022-11-13T15:53:51.872Z,4.46
2022-11-13T15:54:59.182Z,5.53
2022-11-13T15:56:13.509Z,5.78
2022-11-13T15:57:22.219Z,5.74
2022-11-13T15:58:29.307Z,5.31
2022-11-13T15:59:33.703Z,5.57
2022-11-13T16:00:36.831Z,6.35
2022-11-13T16:01:40.628Z,5.79
2022-11-13T16:02:45.751Z,5.89
2022-11-13T16:03:51.882Z,5.16
2022-11-13T16:05:01.380Z,4.19
2022-11-13T16:06:04.654Z,3.86
2022-11-13T16:07:14.907Z,4.32
2022-11-13T16:08:17.465Z,4.24
2022-11-13T16:09:21.091Z,4.36
2022-11-13T16:10:25.778Z,3.83
2022-11-13T16:11:31.878Z,4.09
2022-11-13T16:12:34.009Z,3.78
2022-11-13T16:13:38.669Z,4.29
2022-11-13T16:14:40.784Z,4.19
2022-11-13T16:15:43.085Z,4.56
2022-11-13T16:16:47.609Z,4.25
2022-11-13T16:17:53.843Z,3.90
2022-11-13T16:19:00.196Z,4.18
2022-11-13T16:20:04.196Z,3.67
2022-11-13T16:21:09.962Z,4.16
2022-11-13T16:22:19.383Z,4.15
2022-11-13T16:23:22.011Z,4.69
2022-11-13T16:24:25.053Z,4.95
2022-11-13T16:25:28.753Z,4.98
2022-11-13T16:26:30.718Z,4.28
2022-11-13T16:27:34.371Z,4.80
2022-11-13T16:28:52.864Z,4.74
2022-11-13T16:29:40.072Z,4.22
2022-11-13T16:30:43.600Z,4.50
2022-11-13T16:31:45.677Z,4.34
2022-11-13T16:32:48.349Z,5.05
2022-11-13T16:33:50.228Z,4.85
2022-11-13T16:34:52.116Z,4.82
2022-11-13T16:35:54.593Z,4.83
2022-11-13T16:36:59.430Z,4.69
2022-11-13T16:38:04.687Z,4.84
2022-11-13T16:39:10.399Z,4.31
2022-11-13T16:40:16.601Z,4.73
2022-11-13T16:41:19.126Z,4.71
2022-11-13T16:42:20.998Z,4.94
2022-11-13T16:43:22.919Z,5.43
2022-11-13T16:44:25.296Z,5.81
2022-11-13T16:45:27.278Z,5.94
2022-11-13T16:46:34.929Z,4.75
2022-11-13T16:47:37.243Z,5.21
2022-11-13T16:48:39.873Z,4.67
2022-11-13T16:49:41.853Z,5.09
2022-11-13T16:50:44.008Z,5.59
2022-11-13T16:51:46.100Z,5.24
2022-11-13T16:52:47.967Z,5.95
2022-11-13T16:53:51.131Z,5.38
2022-11-13T16:54:53.240Z,5.85
2022-11-13T16:55:55.137Z,6.18
2022-11-13T16:56:57.213Z,5.54
2022-11-13T16:57:59.098Z,5.11
2022-11-13T16:59:01.705Z,4.96
2022-11-13T17:00:06.830Z,4.99
2022-11-13T17:01:15.533Z,4.92
2022-11-13T17:02:18.211Z,5.70
2022-11-13T17:03:24.301Z,5.19
2022-11-13T17:04:26.438Z,4.93
2022-11-13T17:05:30.052Z,5.10
2022-11-13T17:06:36.684Z,5.38
2022-11-13T17:07:39.411Z,5.34
2022-11-13T17:08:41.590Z,6.89
2022-11-13T17:09:45.189Z,6.54
2022-11-13T17:10:55.700Z,6.80
2022-11-13T17:11:58.119Z,7.09
2022-11-13T17:13:00.744Z,7.71
2022-11-13T17:14:04.380Z,7.74
2022-11-13T17:15:08.056Z,6.49
2022-11-13T17:16:14.549Z,5.95
2022-11-13T17:17:16.690Z,8.26
2022-11-13T17:18:19.539Z,7.44
2022-11-13T17:19:21.650Z,7.74
2022-11-13T17:20:23.919Z,7.13
2022-11-13T17:21:28.322Z,12.76
2022-11-13T17:22:30.234Z,9.11
2022-11-13T17:23:34.660Z,8.49
2022-11-13T17:24:37.316Z,8.98
2022-11-13T17:25:39.326Z,7.55
2022-11-13T17:26:41.292Z,7.13
2022-11-13T17:27:43.479Z,6.41
2022-11-13T17:28:46.167Z,5.67
2022-11-13T17:29:48.034Z,5.01
2022-11-13T17:30:51.859Z,5.65
2022-11-13T17:31:56.232Z,4.82
2022-11-13T17:32:58.787Z,5.56
2022-11-13T17:34:01.571Z,5.24
2022-11-13T17:35:05.169Z,4.24
2022-11-13T17:36:10.497Z,5.62
2022-11-13T17:37:13.155Z,7.67
2022-11-13T17:38:15.035Z,10.47
2022-11-13T17:39:16.923Z,12.41
2022-11-13T17:40:19.229Z,13.13
2022-11-13T17:41:22.321Z,13.01
2022-11-13T17:42:24.848Z,14.39
2022-11-13T17:43:27.824Z,13.61
2022-11-13T17:44:30.069Z,14.49
2022-11-13T17:45:37.668Z,14.33
2022-11-13T17:46:39.673Z,10.93
2022-11-13T17:47:41.587Z,9.36
2022-11-13T17:48:45.673Z,7.94
2022-11-13T17:49:47.751Z,7.79
2022-11-13T17:50:57.593Z,6.49
2022-11-13T17:51:59.626Z,6.19
2022-11-13T17:53:01.713Z,6.23
2022-11-13T17:54:03.867Z,5.89
2022-11-13T17:55:06.603Z,5.35
2022-11-13T17:56:10.645Z,5.17
2022-11-13T17:57:13.068Z,4.87
2022-11-13T17:58:16.157Z,4.92
2022-11-13T17:59:18.050Z,4.39
2022-11-13T18:00:20.059Z,5.11
2022-11-13T18:01:23.900Z,4.81
2022-11-13T18:02:26.015Z,5.98
2022-11-13T18:03:28.350Z,5.42
2022-11-13T18:04:30.679Z,6.97
2022-11-13T18:05:40.345Z,6.77
2022-11-13T18:06:39.568Z,8.23
2022-11-13T18:07:41.690Z,9.26
2022-11-13T18:08:44.818Z,8.97
2022-11-13T18:09:46.694Z,8.88
2022-11-13T18:10:49.169Z,10.57
2022-11-13T18:11:51.228Z,10.49
2022-11-13T18:12:53.915Z,9.94
2022-11-13T18:13:56.625Z,9.25
2022-11-13T18:14:58.535Z,8.99
2022-11-13T18:16:06.441Z,8.37
2022-11-13T18:17:09.726Z,8.23
2022-11-13T18:18:11.763Z,6.96
2022-11-13T18:19:14.964Z,6.67
2022-11-13T18:20:17.957Z,6.77
2022-11-13T18:21:23.855Z,5.28
2022-11-13T18:22:25.945Z,4.98
2022-11-13T18:23:28.031Z,5.09
2022-11-13T18:24:30.755Z,4.45
2022-11-13T18:25:39.450Z,4.33
2022-11-13T18:26:56.782Z,3.95
2022-11-13T18:27:59.845Z,5.07
2022-11-13T18:29:03.039Z,4.21
2022-11-13T18:30:07.964Z,4.18
2022-11-13T18:31:12.701Z,4.53
2022-11-13T18:32:16.735Z,5.28
2022-11-13T18:33:21.930Z,4.71
2022-11-13T18:34:24.224Z,5.05
2022-11-13T18:35:26.530Z,5.03
2022-11-13T18:36:29.950Z,6.15
2022-11-13T18:37:34.185Z,5.20
2022-11-13T18:38:37.604Z,5.89
2022-11-13T18:39:39.966Z,4.98
2022-11-13T18:40:42.130Z,5.01
2022-11-13T18:41:46.079Z,4.81
2022-11-13T18:43:13.752Z,4.82
2022-11-13T18:44:36.680Z,4.81
2022-11-13T18:45:42.488Z,4.77
2022-11-13T18:46:46.962Z,4.62
2022-11-13T18:47:48.971Z,4.24
2022-11-13T18:48:50.988Z,4.22
2022-11-13T18:49:54.088Z,4.31
2022-11-13T18:50:59.464Z,4.56
2022-11-13T18:52:01.433Z,4.65
2022-11-13T18:53:06.499Z,4.43
2022-11-13T18:54:27.834Z,4.58
2022-11-13T18:55:21.575Z,4.78
2022-11-13T18:56:27.067Z,4.57
2022-11-13T18:57:28.983Z,4.49
2022-11-13T18:58:31.738Z,5.40
2022-11-13T18:59:34.394Z,4.01
2022-11-13T19:00:38.091Z,4.49
2022-11-13T19:01:40.125Z,4.37
2022-11-13T19:02:42.155Z,5.07
2022-11-13T19:04:08.206Z,5.33
2022-11-13T19:04:48.665Z,5.06
2022-11-13T19:05:50.687Z,4.43
2022-11-13T19:06:53.964Z,4.89
2022-11-13T19:07:56.007Z,4.56
2022-11-13T19:09:03.607Z,4.77
2022-11-13T19:10:06.994Z,4.49
2022-11-13T19:11:18.127Z,4.77
2022-11-13T19:12:20.140Z,4.46
2022-11-13T19:13:23.229Z,5.28
2022-11-13T19:14:25.190Z,4.65
2022-11-13T19:15:27.086Z,4.79
2022-11-13T19:16:32.531Z,4.67
2022-11-13T19:17:34.511Z,4.95
2022-11-13T19:18:38.984Z,4.80
2022-11-13T19:19:41.001Z,4.95
2022-11-13T19:20:43.078Z,5.21
2022-11-13T19:21:45.973Z,4.79
2022-11-13T19:22:48.347Z,5.00
2022-11-13T19:23:50.638Z,4.67
2022-11-13T19:24:52.533Z,5.44
2022-11-13T19:25:54.627Z,5.04
2022-11-13T19:26:56.586Z,5.69
2022-11-13T19:27:58.850Z,5.66
2022-11-13T19:29:00.723Z,4.91
2022-11-13T19:30:03.715Z,5.13
2022-11-13T19:31:16.304Z,5.04
2022-11-13T19:32:18.472Z,5.10
2022-11-13T19:33:25.178Z,5.08
2022-11-13T19:34:27.289Z,4.61
2022-11-13T19:35:30.018Z,4.67
2022-11-13T19:36:33.933Z,4.97
2022-11-13T19:37:35.883Z,4.30
2022-11-13T19:38:38.995Z,4.39
2022-11-13T19:39:41.040Z,4.69
2022-11-13T19:40:49.925Z,5.00
2022-11-13T19:41:51.835Z,4.54
2022-11-13T19:42:54.865Z,4.52
2022-11-13T19:43:59.288Z,4.74
2022-11-13T19:45:02.252Z,4.92
2022-11-13T19:46:06.832Z,4.51
2022-11-13T19:47:09.192Z,4.81
2022-11-13T19:48:17.536Z,4.43
2022-11-13T19:49:15.817Z,4.24
2022-11-13T19:50:18.088Z,4.06
2022-11-13T19:52:35.885Z,4.32
2022-11-13T19:53:39.884Z,4.13
2022-11-13T19:54:42.280Z,4.39
2022-11-13T19:55:55.286Z,4.20
2022-11-13T19:56:57.708Z,4.31
2022-11-13T19:58:00.433Z,4.38
2022-11-13T19:59:02.551Z,4.64
2022-11-13T20:00:06.295Z,5.09
2022-11-13T20:01:10.544Z,5.08
2022-11-13T20:02:12.805Z,4.28
2022-11-13T20:03:16.517Z,5.47
2022-11-13T20:04:18.553Z,5.09
2022-11-13T20:05:21.169Z,5.00
2022-11-13T20:06:24.910Z,5.54
2022-11-13T20:07:27.696Z,4.87
2022-11-13T20:08:30.089Z,5.12
2022-11-13T20:09:32.363Z,5.30
2022-11-13T20:10:34.502Z,5.78
2022-11-13T20:11:37.528Z,5.94
2022-11-13T20:12:39.393Z,7.39
2022-11-13T20:13:42.674Z,4.90
2022-11-13T20:14:44.561Z,5.47
2022-11-13T20:15:54.493Z,5.43
2022-11-13T20:16:56.530Z,5.40
2022-11-13T20:17:58.485Z,5.33
2022-11-13T20:19:00.354Z,6.16
2022-11-13T20:20:02.974Z,5.50
2022-11-13T20:21:05.222Z,5.63
2022-11-13T20:22:08.672Z,5.83
2022-11-13T20:23:10.557Z,5.53
2022-11-13T20:24:12.694Z,5.25
2022-11-13T20:25:14.564Z,5.68
2022-11-13T20:26:17.482Z,6.19
2022-11-13T20:27:20.373Z,5.98
2022-11-13T20:28:23.377Z,5.71
2022-11-13T20:29:25.368Z,6.84
2022-11-13T20:30:27.409Z,6.53
2022-11-13T20:31:30.448Z,6.83
2022-11-13T20:32:38.133Z,6.34
2022-11-13T20:33:40.102Z,7.75
2022-11-13T20:34:41.984Z,6.93
2022-11-13T20:35:48.065Z,6.73
2022-11-13T20:36:50.385Z,7.39
2022-11-13T20:37:52.308Z,7.88
2022-11-13T20:38:57.922Z,9.04
2022-11-13T20:40:00.747Z,8.82
2022-11-13T20:41:08.451Z,7.07
2022-11-13T20:42:11.041Z,6.39
2022-11-13T20:43:13.536Z,5.83
2022-11-13T20:44:15.436Z,6.99
2022-11-13T20:45:17.469Z,6.14
2022-11-13T20:46:20.380Z,6.25
2022-11-13T20:47:22.279Z,6.16
2022-11-13T20:48:24.151Z,6.65
2022-11-13T20:49:26.041Z,7.10
2022-11-13T20:50:28.565Z,7.33
2022-11-13T20:51:30.979Z,7.85
2022-11-13T20:52:32.997Z,8.11
2022-11-13T20:53:34.874Z,7.72
2022-11-13T20:54:36.894Z,6.25
2022-11-13T20:55:38.818Z,6.57
2022-11-13T20:56:40.999Z,6.35
2022-11-13T20:57:42.893Z,6.16
2022-11-13T20:58:45.066Z,6.57
2022-11-13T20:59:46.927Z,6.45
2022-11-13T21:00:50.325Z,5.74
2022-11-13T21:01:54.058Z,5.61
2022-11-13T21:02:56.950Z,5.66
2022-11-13T21:03:58.913Z,5.28
2022-11-13T21:05:00.805Z,5.58
2022-11-13T21:06:03.227Z,6.07
2022-11-13T21:07:05.470Z,5.41
2022-11-13T21:08:10.534Z,5.93
2022-11-13T21:09:12.905Z,5.72
2022-11-13T21:10:15.586Z,5.70
2022-11-13T21:11:20.019Z,5.84
2022-11-13T21:12:21.906Z,6.10
2022-11-13T21:13:24.879Z,6.59
2022-11-13T21:14:26.774Z,5.49
2022-11-13T21:15:28.753Z,5.61
2022-11-13T21:16:31.384Z,5.93
2022-11-13T21:17:33.279Z,6.33
2022-11-13T21:18:35.496Z,5.61
2022-11-13T21:19:37.666Z,6.10
2022-11-13T21:20:39.879Z,5.19
2022-11-13T21:21:41.877Z,5.25
2022-11-13T21:22:43.750Z,6.38
2022-11-13T21:23:46.706Z,6.52
2022-11-13T21:24:48.660Z,7.51
2022-11-13T21:25:59.826Z,8.35
2022-11-13T21:27:01.946Z,9.77
2022-11-13T21:28:04.652Z,9.47
2022-11-13T21:29:06.532Z,8.73
2022-11-13T21:30:10.159Z,9.49
2022-11-13T21:32:24.865Z,8.97
2022-11-13T21:33:26.758Z,8.29
2022-11-13T21:34:28.628Z,8.07
2022-11-13T21:35:30.504Z,8.82
2022-11-13T21:36:32.497Z,7.31
2022-11-13T21:37:34.464Z,7.03
2022-11-13T21:38:37.910Z,7.27
2022-11-13T21:39:39.914Z,6.71
2022-11-13T21:40:41.930Z,7.12
2022-11-13T21:41:43.825Z,6.63
2022-11-13T21:42:47.600Z,6.96
2022-11-13T21:43:56.096Z,6.70
2022-11-13T21:44:59.497Z,6.31
2022-11-13T21:46:05.390Z,6.16
2022-11-13T21:47:10.032Z,5.78
2022-11-13T21:48:11.932Z,5.92
2022-11-13T21:49:14.421Z,5.90
2022-11-13T21:50:17.766Z,5.66
2022-11-13T21:51:19.634Z,5.15
2022-11-13T21:52:21.645Z,6.17
2022-11-13T21:53:23.859Z,6.23
2022-11-13T21:54:25.713Z,6.64
2022-11-13T21:55:27.582Z,6.93
2022-11-13T21:56:33.463Z,8.05
2022-11-13T21:57:35.361Z,7.94
2022-11-13T21:58:39.869Z,7.64
2022-11-13T21:59:41.872Z,8.15
2022-11-13T22:00:43.835Z,8.31
2022-11-13T22:01:45.749Z,8.74
2022-11-13T22:02:47.823Z,9.28
2022-11-13T22:03:50.619Z,9.17
2022-11-13T22:04:52.528Z,11.20
2022-11-13T22:06:14.990Z,12.86
2022-11-13T22:07:17.278Z,13.81
2022-11-13T22:08:20.469Z,13.01
2022-11-13T22:09:24.679Z,14.42
2022-11-13T22:10:26.683Z,17.84
2022-11-13T22:11:31.820Z,23.14
2022-11-13T22:12:34.923Z,18.49
2022-11-13T22:13:37.199Z,15.99
2022-11-13T22:14:39.201Z,13.68
2022-11-13T22:15:41.258Z,10.40
2022-11-13T22:16:47.027Z,8.39
2022-11-13T22:17:48.999Z,7.74
2022-11-13T22:20:04.807Z,7.26
2022-11-13T22:21:08.999Z,7.67
2022-11-13T22:22:10.973Z,6.28
2022-11-13T22:23:12.867Z,6.25
2022-11-13T22:24:15.127Z,6.12
2022-11-13T22:25:16.994Z,5.84
2022-11-13T22:26:20.305Z,6.48
2022-11-13T22:27:22.194Z,5.79
2022-11-13T22:28:24.097Z,5.00
2022-11-13T22:29:26.224Z,5.43
2022-11-13T22:30:28.196Z,5.43
2022-11-13T22:31:31.716Z,5.76
2022-11-13T22:32:33.722Z,5.30
2022-11-13T22:33:35.584Z,5.49
2022-11-13T22:34:37.635Z,6.05